sensor_id;sensor_type;location;lat;lon;timestamp;P1;durP1;ratioP1;P2;durP2;ratioP2
31537;SDS011;18147;51.952;6.146;2022-10-31T00:01:10;19.73;;;9.57;;
31537;SDS011;18147;51.952;6.146;2022-10-31T00:03:37;17.25;;;8.60;;
31537;SDS011;18147;51.952;6.146;2022-10-31T00:06:02;19.45;;;9.80;;
31537;SDS011;18147;51.952;6.146;2022-10-31T00:08:28;23.02;;;10.07;;
31537;SDS011;18147;51.952;6.146;2022-10-31T00:10:53;11.38;;;7.82;;
31537;SDS011;18147;51.952;6.146;2022-10-31T00:13:18;13.95;;;6.68;;
31537;SDS011;18147;51.952;6.146;2022-10-31T00:15:44;15.60;;;8.07;;
31537;SDS011;18147;51.952;6.146;2022-10-31T00:18:10;19.55;;;8.18;;
31537;SDS011;18147;51.952;6.146;2022-10-31T00:20:35;28.38;;;10.05;;
31537;SDS011;18147;51.952;6.146;2022-10-31T00:23:01;21.85;;;8.10;;
31537;SDS011;18147;51.952;6.146;2022-10-31T00:25:32;12.30;;;7.90;;
31537;SDS011;18147;51.952;6.146;2022-10-31T00:28:00;20.92;;;9.45;;
31537;SDS011;18147;51.952;6.146;2022-10-31T00:30:25;19.95;;;9.80;;
31537;SDS011;18147;51.952;6.146;2022-10-31T00:32:51;24.45;;;11.10;;
31537;SDS011;18147;51.952;6.146;2022-10-31T00:35:16;23.90;;;10.52;;
31537;SDS011;18147;51.952;6.146;2022-10-31T00:37:43;24.17;;;10.52;;
31537;SDS011;18147;51.952;6.146;2022-10-31T00:40:09;21.70;;;10.02;;
31537;SDS011;18147;51.952;6.146;2022-10-31T00:42:35;18.38;;;9.80;;
31537;SDS011;18147;51.952;6.146;2022-10-31T00:45:00;22.85;;;10.48;;
31537;SDS011;18147;51.952;6.146;2022-10-31T00:47:26;17.10;;;9.27;;
31537;SDS011;18147;51.952;6.146;2022-10-31T00:49:51;25.58;;;10.43;;
31537;SDS011;18147;51.952;6.146;2022-10-31T00:52:16;24.75;;;10.02;;
31537;SDS011;18147;51.952;6.146;2022-10-31T00:54:42;25.13;;;11.68;;
31537;SDS011;18147;51.952;6.146;2022-10-31T00:57:08;22.85;;;11.25;;
31537;SDS011;18147;51.952;6.146;2022-10-31T00:59:33;23.15;;;12.10;;
31537;SDS011;18147;51.952;6.146;2022-10-31T01:01:59;21.60;;;11.65;;
31537;SDS011;18147;51.952;6.146;2022-10-31T01:04:24;24.58;;;11.70;;
31537;SDS011;18147;51.952;6.146;2022-10-31T01:06:50;24.67;;;12.02;;
31537;SDS011;18147;51.952;6.146;2022-10-31T01:09:15;14.90;;;9.80;;
31537;SDS011;18147;51.952;6.146;2022-10-31T01:11:42;17.35;;;9.63;;
31537;SDS011;18147;51.952;6.146;2022-10-31T01:14:08;13.52;;;6.50;;
31537;SDS011;18147;51.952;6.146;2022-10-31T01:16:34;22.60;;;8.18;;
31537;SDS011;18147;51.952;6.146;2022-10-31T01:19:00;20.40;;;8.65;;
31537;SDS011;18147;51.952;6.146;2022-10-31T01:21:27;20.30;;;10.82;;
31537;SDS011;18147;51.952;6.146;2022-10-31T01:23:57;18.05;;;9.35;;
31537;SDS011;18147;51.952;6.146;2022-10-31T01:26:27;18.77;;;8.45;;
31537;SDS011;18147;51.952;6.146;2022-10-31T01:28:58;27.17;;;11.07;;
31537;SDS011;18147;51.952;6.146;2022-10-31T01:31:28;13.45;;;6.03;;
31537;SDS011;18147;51.952;6.146;2022-10-31T01:33:55;8.88;;;5.18;;
31537;SDS011;18147;51.952;6.146;2022-10-31T01:36:22;5.47;;;4.22;;
31537;SDS011;18147;51.952;6.146;2022-10-31T01:38:50;10.18;;;4.63;;
31537;SDS011;18147;51.952;6.146;2022-10-31T01:41:17;12.95;;;7.45;;
31537;SDS011;18147;51.952;6.146;2022-10-31T01:43:53;5.28;;;3.13;;
31537;SDS011;18147;51.952;6.146;2022-10-31T01:46:25;8.50;;;5.63;;
31537;SDS011;18147;51.952;6.146;2022-10-31T01:48:54;7.63;;;4.55;;
31537;SDS011;18147;51.952;6.146;2022-10-31T01:51:22;21.10;;;10.77;;
31537;SDS011;18147;51.952;6.146;2022-10-31T01:53:52;26.08;;;12.02;;
31537;SDS011;18147;51.952;6.146;2022-10-31T01:56:23;20.80;;;10.43;;
31537;SDS011;18147;51.952;6.146;2022-10-31T01:58:49;24.67;;;13.55;;
31537;SDS011;18147;51.952;6.146;2022-10-31T02:01:15;21.38;;;11.10;;
31537;SDS011;18147;51.952;6.146;2022-10-31T02:03:42;17.05;;;7.55;;
31537;SDS011;18147;51.952;6.146;2022-10-31T02:06:14;25.45;;;8.30;;
31537;SDS011;18147;51.952;6.146;2022-10-31T02:08:49;24.38;;;9.82;;
31537;SDS011;18147;51.952;6.146;2022-10-31T02:11:16;21.60;;;10.98;;
31537;SDS011;18147;51.952;6.146;2022-10-31T02:13:42;24.42;;;11.90;;
31537;SDS011;18147;51.952;6.146;2022-10-31T02:16:08;20.20;;;10.40;;
31537;SDS011;18147;51.952;6.146;2022-10-31T02:18:34;21.33;;;10.80;;
31537;SDS011;18147;51.952;6.146;2022-10-31T02:24:15;20.83;;;10.57;;
31537;SDS011;18147;51.952;6.146;2022-10-31T02:27:10;21.75;;;10.48;;
31537;SDS011;18147;51.952;6.146;2022-10-31T02:44:23;22.92;;;11.60;;
31537;SDS011;18147;51.952;6.146;2022-10-31T02:52:32;22.20;;;11.95;;
31537;SDS011;18147;51.952;6.146;2022-10-31T02:55:12;34.60;;;14.50;;
31537;SDS011;18147;51.952;6.146;2022-10-31T03:00:26;29.55;;;14.48;;
31537;SDS011;18147;51.952;6.146;2022-10-31T03:06:03;36.92;;;14.48;;
31537;SDS011;18147;51.952;6.146;2022-10-31T03:11:28;24.83;;;13.35;;
31537;SDS011;18147;51.952;6.146;2022-10-31T03:14:00;31.88;;;14.27;;
31537;SDS011;18147;51.952;6.146;2022-10-31T03:21:55;16.35;;;9.05;;
31537;SDS011;18147;51.952;6.146;2022-10-31T03:24:27;17.65;;;8.52;;
31537;SDS011;18147;51.952;6.146;2022-10-31T03:26:59;17.88;;;9.57;;
31537;SDS011;18147;51.952;6.146;2022-10-31T03:29:29;23.02;;;12.32;;
31537;SDS011;18147;51.952;6.146;2022-10-31T03:32:04;21.88;;;11.05;;
31537;SDS011;18147;51.952;6.146;2022-10-31T03:34:36;24.42;;;12.30;;
31537;SDS011;18147;51.952;6.146;2022-10-31T03:37:06;13.13;;;7.72;;
31537;SDS011;18147;51.952;6.146;2022-10-31T03:39:33;13.18;;;7.38;;
31537;SDS011;18147;51.952;6.146;2022-10-31T03:42:05;12.30;;;7.65;;
31537;SDS011;18147;51.952;6.146;2022-10-31T03:44:41;13.30;;;7.75;;
31537;SDS011;18147;51.952;6.146;2022-10-31T03:47:16;16.17;;;8.15;;
31537;SDS011;18147;51.952;6.146;2022-10-31T03:49:45;10.77;;;6.82;;
31537;SDS011;18147;51.952;6.146;2022-10-31T03:54:56;14.60;;;8.32;;
31537;SDS011;18147;51.952;6.146;2022-10-31T03:57:31;16.42;;;8.75;;
31537;SDS011;18147;51.952;6.146;2022-10-31T04:00:12;25.50;;;10.77;;
31537;SDS011;18147;51.952;6.146;2022-10-31T04:02:53;18.52;;;10.85;;
31537;SDS011;18147;51.952;6.146;2022-10-31T04:05:31;19.85;;;9.25;;
31537;SDS011;18147;51.952;6.146;2022-10-31T04:08:00;15.73;;;9.80;;
31537;SDS011;18147;51.952;6.146;2022-10-31T04:10:30;11.05;;;6.80;;
31537;SDS011;18147;51.952;6.146;2022-10-31T04:13:07;13.98;;;6.93;;
31537;SDS011;18147;51.952;6.146;2022-10-31T04:15:47;10.77;;;6.88;;
31537;SDS011;18147;51.952;6.146;2022-10-31T04:18:16;10.63;;;5.55;;
31537;SDS011;18147;51.952;6.146;2022-10-31T04:20:41;8.65;;;5.07;;
31537;SDS011;18147;51.952;6.146;2022-10-31T04:23:19;7.18;;;4.28;;
31537;SDS011;18147;51.952;6.146;2022-10-31T04:25:48;11.93;;;6.07;;
31537;SDS011;18147;51.952;6.146;2022-10-31T04:28:15;10.48;;;6.65;;
31537;SDS011;18147;51.952;6.146;2022-10-31T04:30:42;12.55;;;8.40;;
31537;SDS011;18147;51.952;6.146;2022-10-31T04:33:10;19.42;;;11.75;;
31537;SDS011;18147;51.952;6.146;2022-10-31T04:35:36;18.25;;;10.75;;
31537;SDS011;18147;51.952;6.146;2022-10-31T04:38:02;25.75;;;12.65;;
31537;SDS011;18147;51.952;6.146;2022-10-31T04:40:28;21.90;;;10.95;;
31537;SDS011;18147;51.952;6.146;2022-10-31T04:42:54;22.20;;;11.70;;
31537;SDS011;18147;51.952;6.146;2022-10-31T04:45:19;19.13;;;10.90;;
31537;SDS011;18147;51.952;6.146;2022-10-31T04:47:47;16.92;;;9.52;;
31537;SDS011;18147;51.952;6.146;2022-10-31T04:50:12;18.48;;;9.45;;
31537;SDS011;18147;51.952;6.146;2022-10-31T04:52:38;13.05;;;7.93;;
31537;SDS011;18147;51.952;6.146;2022-10-31T04:55:05;16.58;;;8.57;;
31537;SDS011;18147;51.952;6.146;2022-10-31T04:57:49;10.02;;;6.57;;
31537;SDS011;18147;51.952;6.146;2022-10-31T05:00:18;7.80;;;5.55;;
31537;SDS011;18147;51.952;6.146;2022-10-31T05:02:48;40.47;;;7.32;;
31537;SDS011;18147;51.952;6.146;2022-10-31T05:05:19;21.15;;;5.80;;
31537;SDS011;18147;51.952;6.146;2022-10-31T05:07:46;15.35;;;6.20;;
31537;SDS011;18147;51.952;6.146;2022-10-31T05:10:14;54.13;;;8.73;;
31537;SDS011;18147;51.952;6.146;2022-10-31T05:12:46;38.40;;;8.13;;
31537;SDS011;18147;51.952;6.146;2022-10-31T05:15:34;30.63;;;9.05;;
31537;SDS011;18147;51.952;6.146;2022-10-31T05:18:25;19.10;;;9.48;;
31537;SDS011;18147;51.952;6.146;2022-10-31T05:21:09;15.77;;;8.85;;
31537;SDS011;18147;51.952;6.146;2022-10-31T05:23:40;42.42;;;9.63;;
31537;SDS011;18147;51.952;6.146;2022-10-31T05:26:07;24.65;;;8.02;;
31537;SDS011;18147;51.952;6.146;2022-10-31T05:28:33;23.40;;;8.10;;
31537;SDS011;18147;51.952;6.146;2022-10-31T05:30:58;12.07;;;6.90;;
31537;SDS011;18147;51.952;6.146;2022-10-31T05:33:24;32.25;;;9.15;;
31537;SDS011;18147;51.952;6.146;2022-10-31T05:36:24;25.08;;;9.50;;
31537;SDS011;18147;51.952;6.146;2022-10-31T05:38:55;50.25;;;10.70;;
31537;SDS011;18147;51.952;6.146;2022-10-31T05:41:28;36.97;;;11.63;;
31537;SDS011;18147;51.952;6.146;2022-10-31T05:44:02;32.00;;;10.68;;
31537;SDS011;18147;51.952;6.146;2022-10-31T05:46:30;58.00;;;10.52;;
31537;SDS011;18147;51.952;6.146;2022-10-31T05:49:24;40.17;;;9.68;;
31537;SDS011;18147;51.952;6.146;2022-10-31T05:52:08;27.42;;;9.90;;
31537;SDS011;18147;51.952;6.146;2022-10-31T05:54:44;27.35;;;9.25;;
31537;SDS011;18147;51.952;6.146;2022-10-31T05:57:10;21.85;;;10.65;;
31537;SDS011;18147;51.952;6.146;2022-10-31T05:59:35;27.08;;;11.55;;
31537;SDS011;18147;51.952;6.146;2022-10-31T06:02:01;43.15;;;13.45;;
31537;SDS011;18147;51.952;6.146;2022-10-31T06:04:46;23.98;;;12.27;;
31537;SDS011;18147;51.952;6.146;2022-10-31T06:07:12;23.30;;;10.05;;
31537;SDS011;18147;51.952;6.146;2022-10-31T06:09:38;22.88;;;8.98;;
31537;SDS011;18147;51.952;6.146;2022-10-31T06:12:05;15.80;;;8.50;;
31537;SDS011;18147;51.952;6.146;2022-10-31T06:15:04;16.63;;;8.43;;
31537;SDS011;18147;51.952;6.146;2022-10-31T06:17:31;16.92;;;8.07;;
31537;SDS011;18147;51.952;6.146;2022-10-31T06:20:16;15.90;;;8.68;;
31537;SDS011;18147;51.952;6.146;2022-10-31T06:22:52;10.52;;;6.55;;
31537;SDS011;18147;51.952;6.146;2022-10-31T06:25:18;33.42;;;7.97;;
31537;SDS011;18147;51.952;6.146;2022-10-31T06:27:47;31.85;;;8.48;;
31537;SDS011;18147;51.952;6.146;2022-10-31T06:30:13;16.08;;;6.85;;
31537;SDS011;18147;51.952;6.146;2022-10-31T06:32:39;17.02;;;7.60;;
31537;SDS011;18147;51.952;6.146;2022-10-31T06:35:05;12.48;;;8.02;;
31537;SDS011;18147;51.952;6.146;2022-10-31T06:37:33;13.23;;;8.73;;
31537;SDS011;18147;51.952;6.146;2022-10-31T06:40:05;13.25;;;9.00;;
31537;SDS011;18147;51.952;6.146;2022-10-31T06:42:42;15.48;;;8.75;;
31537;SDS011;18147;51.952;6.146;2022-10-31T06:45:08;26.05;;;8.40;;
31537;SDS011;18147;51.952;6.146;2022-10-31T06:47:59;17.30;;;7.72;;
31537;SDS011;18147;51.952;6.146;2022-10-31T06:50:26;11.10;;;7.07;;
31537;SDS011;18147;51.952;6.146;2022-10-31T06:52:52;12.38;;;7.43;;
31537;SDS011;18147;51.952;6.146;2022-10-31T06:55:19;15.98;;;8.80;;
31537;SDS011;18147;51.952;6.146;2022-10-31T06:57:57;16.02;;;9.57;;
31537;SDS011;18147;51.952;6.146;2022-10-31T07:00:25;14.02;;;8.70;;
31537;SDS011;18147;51.952;6.146;2022-10-31T07:03:03;12.68;;;7.90;;
31537;SDS011;18147;51.952;6.146;2022-10-31T07:05:30;13.75;;;7.18;;
31537;SDS011;18147;51.952;6.146;2022-10-31T07:07:58;13.52;;;7.82;;
31537;SDS011;18147;51.952;6.146;2022-10-31T07:10:27;11.85;;;7.45;;
31537;SDS011;18147;51.952;6.146;2022-10-31T07:13:00;15.23;;;7.07;;
31537;SDS011;18147;51.952;6.146;2022-10-31T07:15:29;11.55;;;8.10;;
31537;SDS011;18147;51.952;6.146;2022-10-31T07:17:59;10.23;;;7.50;;
31537;SDS011;18147;51.952;6.146;2022-10-31T07:20:26;12.35;;;7.32;;
31537;SDS011;18147;51.952;6.146;2022-10-31T07:22:52;9.43;;;6.47;;
31537;SDS011;18147;51.952;6.146;2022-10-31T07:25:18;8.65;;;7.07;;
31537;SDS011;18147;51.952;6.146;2022-10-31T07:28:06;9.65;;;6.80;;
31537;SDS011;18147;51.952;6.146;2022-10-31T07:30:32;8.88;;;6.32;;
31537;SDS011;18147;51.952;6.146;2022-10-31T07:32:58;9.27;;;6.50;;
31537;SDS011;18147;51.952;6.146;2022-10-31T07:35:34;10.43;;;7.57;;
31537;SDS011;18147;51.952;6.146;2022-10-31T07:38:06;14.45;;;7.50;;
31537;SDS011;18147;51.952;6.146;2022-10-31T07:40:36;10.88;;;7.88;;
31537;SDS011;18147;51.952;6.146;2022-10-31T07:43:01;15.23;;;8.85;;
31537;SDS011;18147;51.952;6.146;2022-10-31T07:45:51;18.10;;;10.75;;
31537;SDS011;18147;51.952;6.146;2022-10-31T07:48:35;16.08;;;9.50;;
31537;SDS011;18147;51.952;6.146;2022-10-31T07:51:19;18.38;;;10.90;;
31537;SDS011;18147;51.952;6.146;2022-10-31T07:54:03;18.70;;;10.80;;
31537;SDS011;18147;51.952;6.146;2022-10-31T07:56:30;20.60;;;10.73;;
31537;SDS011;18147;51.952;6.146;2022-10-31T07:58:56;19.58;;;11.25;;
31537;SDS011;18147;51.952;6.146;2022-10-31T08:01:22;21.85;;;11.85;;
31537;SDS011;18147;51.952;6.146;2022-10-31T08:04:05;23.70;;;11.20;;
31537;SDS011;18147;51.952;6.146;2022-10-31T08:06:49;20.10;;;11.80;;
31537;SDS011;18147;51.952;6.146;2022-10-31T08:09:26;17.70;;;10.70;;
31537;SDS011;18147;51.952;6.146;2022-10-31T08:11:52;22.35;;;12.02;;
31537;SDS011;18147;51.952;6.146;2022-10-31T08:14:18;19.42;;;11.18;;
31537;SDS011;18147;51.952;6.146;2022-10-31T08:16:44;19.33;;;11.27;;
31537;SDS011;18147;51.952;6.146;2022-10-31T08:19:11;17.35;;;10.48;;
31537;SDS011;18147;51.952;6.146;2022-10-31T08:21:38;21.17;;;11.35;;
31537;SDS011;18147;51.952;6.146;2022-10-31T08:24:05;21.17;;;12.07;;
31537;SDS011;18147;51.952;6.146;2022-10-31T08:26:31;22.00;;;13.15;;
31537;SDS011;18147;51.952;6.146;2022-10-31T08:28:57;30.38;;;15.38;;
31537;SDS011;18147;51.952;6.146;2022-10-31T08:31:26;31.13;;;15.65;;
31537;SDS011;18147;51.952;6.146;2022-10-31T08:34:12;25.63;;;15.63;;
31537;SDS011;18147;51.952;6.146;2022-10-31T08:36:57;30.45;;;16.33;;
31537;SDS011;18147;51.952;6.146;2022-10-31T08:39:28;34.65;;;17.17;;
31537;SDS011;18147;51.952;6.146;2022-10-31T08:41:54;34.70;;;18.08;;
31537;SDS011;18147;51.952;6.146;2022-10-31T08:44:19;34.67;;;18.80;;
31537;SDS011;18147;51.952;6.146;2022-10-31T08:46:46;37.40;;;19.85;;
31537;SDS011;18147;51.952;6.146;2022-10-31T08:49:13;38.75;;;19.27;;
31537;SDS011;18147;51.952;6.146;2022-10-31T08:51:40;42.15;;;21.70;;
31537;SDS011;18147;51.952;6.146;2022-10-31T08:54:06;43.08;;;22.15;;
31537;SDS011;18147;51.952;6.146;2022-10-31T08:56:34;42.58;;;21.60;;
31537;SDS011;18147;51.952;6.146;2022-10-31T08:59:02;43.95;;;21.77;;
31537;SDS011;18147;51.952;6.146;2022-10-31T09:01:46;51.67;;;23.85;;
31537;SDS011;18147;51.952;6.146;2022-10-31T09:04:13;49.63;;;23.80;;
31537;SDS011;18147;51.952;6.146;2022-10-31T09:06:38;53.22;;;23.92;;
31537;SDS011;18147;51.952;6.146;2022-10-31T09:09:04;61.53;;;26.95;;
31537;SDS011;18147;51.952;6.146;2022-10-31T09:11:30;47.75;;;24.55;;
31537;SDS011;18147;51.952;6.146;2022-10-31T09:14:14;51.22;;;24.58;;
31537;SDS011;18147;51.952;6.146;2022-10-31T09:17:09;52.78;;;26.58;;
31537;SDS011;18147;51.952;6.146;2022-10-31T09:20:00;53.47;;;26.42;;
31537;SDS011;18147;51.952;6.146;2022-10-31T09:22:30;58.22;;;24.45;;
31537;SDS011;18147;51.952;6.146;2022-10-31T09:24:56;61.60;;;27.40;;
31537;SDS011;18147;51.952;6.146;2022-10-31T09:27:21;60.35;;;27.33;;
31537;SDS011;18147;51.952;6.146;2022-10-31T09:29:47;57.95;;;26.92;;
31537;SDS011;18147;51.952;6.146;2022-10-31T09:32:12;59.15;;;28.17;;
31537;SDS011;18147;51.952;6.146;2022-10-31T09:34:44;63.95;;;26.02;;
31537;SDS011;18147;51.952;6.146;2022-10-31T09:37:13;55.85;;;25.90;;
31537;SDS011;18147;51.952;6.146;2022-10-31T09:39:39;53.92;;;28.15;;
31537;SDS011;18147;51.952;6.146;2022-10-31T09:45:06;59.40;;;25.58;;
31537;SDS011;18147;51.952;6.146;2022-10-31T09:50:48;61.53;;;28.27;;
31537;SDS011;18147;51.952;6.146;2022-10-31T09:53:44;59.05;;;26.80;;
31537;SDS011;18147;51.952;6.146;2022-10-31T09:56:20;57.83;;;26.85;;
31537;SDS011;18147;51.952;6.146;2022-10-31T09:58:50;54.70;;;24.73;;
31537;SDS011;18147;51.952;6.146;2022-10-31T10:04:22;49.15;;;23.00;;
31537;SDS011;18147;51.952;6.146;2022-10-31T10:07:19;44.45;;;21.30;;
31537;SDS011;18147;51.952;6.146;2022-10-31T10:10:44;41.28;;;21.80;;
31537;SDS011;18147;51.952;6.146;2022-10-31T10:13:31;50.05;;;22.88;;
31537;SDS011;18147;51.952;6.146;2022-10-31T10:21:31;45.33;;;20.25;;
31537;SDS011;18147;51.952;6.146;2022-10-31T10:24:22;39.50;;;18.58;;
31537;SDS011;18147;51.952;6.146;2022-10-31T10:30:13;37.28;;;20.05;;
31537;SDS011;18147;51.952;6.146;2022-10-31T10:32:50;39.38;;;20.77;;
31537;SDS011;18147;51.952;6.146;2022-10-31T10:37:46;39.30;;;21.50;;
31537;SDS011;18147;51.952;6.146;2022-10-31T10:40:16;47.05;;;21.63;;
31537;SDS011;18147;51.952;6.146;2022-10-31T10:42:45;40.15;;;19.50;;
31537;SDS011;18147;51.952;6.146;2022-10-31T10:45:39;45.83;;;21.52;;
31537;SDS011;18147;51.952;6.146;2022-10-31T10:48:41;44.22;;;22.13;;
31537;SDS011;18147;51.952;6.146;2022-10-31T10:51:19;41.75;;;20.67;;
31537;SDS011;18147;51.952;6.146;2022-10-31T10:59:01;44.03;;;20.77;;
31537;SDS011;18147;51.952;6.146;2022-10-31T11:01:28;36.78;;;18.90;;
31537;SDS011;18147;51.952;6.146;2022-10-31T11:03:53;54.28;;;21.25;;
31537;SDS011;18147;51.952;6.146;2022-10-31T11:06:22;46.65;;;21.98;;
31537;SDS011;18147;51.952;6.146;2022-10-31T11:08:51;44.53;;;22.25;;
31537;SDS011;18147;51.952;6.146;2022-10-31T11:13:47;54.28;;;20.45;;
31537;SDS011;18147;51.952;6.146;2022-10-31T11:16:28;43.35;;;20.10;;
31537;SDS011;18147;51.952;6.146;2022-10-31T11:21:54;42.55;;;20.33;;
31537;SDS011;18147;51.952;6.146;2022-10-31T11:24:30;46.97;;;20.13;;
31537;SDS011;18147;51.952;6.146;2022-10-31T11:27:13;41.75;;;19.60;;
31537;SDS011;18147;51.952;6.146;2022-10-31T11:29:45;48.85;;;21.73;;
31537;SDS011;18147;51.952;6.146;2022-10-31T11:32:21;38.08;;;19.00;;
31537;SDS011;18147;51.952;6.146;2022-10-31T11:35:00;48.17;;;21.73;;
31537;SDS011;18147;51.952;6.146;2022-10-31T11:37:34;49.85;;;22.25;;
31537;SDS011;18147;51.952;6.146;2022-10-31T11:40:06;46.08;;;21.60;;
31537;SDS011;18147;51.952;6.146;2022-10-31T11:42:41;41.15;;;20.92;;
31537;SDS011;18147;51.952;6.146;2022-10-31T11:45:18;43.42;;;21.15;;
31537;SDS011;18147;51.952;6.146;2022-10-31T11:47:54;54.63;;;23.27;;
31537;SDS011;18147;51.952;6.146;2022-10-31T11:50:25;48.55;;;21.65;;
31537;SDS011;18147;51.952;6.146;2022-10-31T11:52:51;54.80;;;23.58;;
31537;SDS011;18147;51.952;6.146;2022-10-31T11:55:34;45.20;;;21.00;;
31537;SDS011;18147;51.952;6.146;2022-10-31T11:58:02;40.20;;;19.48;;
31537;SDS011;18147;51.952;6.146;2022-10-31T12:00:30;46.58;;;22.42;;
31537;SDS011;18147;51.952;6.146;2022-10-31T12:05:41;53.95;;;23.80;;
31537;SDS011;18147;51.952;6.146;2022-10-31T12:08:11;44.17;;;21.10;;
31537;SDS011;18147;51.952;6.146;2022-10-31T12:22:10;51.15;;;23.48;;
31537;SDS011;18147;51.952;6.146;2022-10-31T12:27:16;50.42;;;22.02;;
31537;SDS011;18147;51.952;6.146;2022-10-31T12:30:12;48.53;;;22.27;;
31537;SDS011;18147;51.952;6.146;2022-10-31T12:35:44;48.17;;;22.42;;
31537;SDS011;18147;51.952;6.146;2022-10-31T12:41:17;49.03;;;22.08;;
31537;SDS011;18147;51.952;6.146;2022-10-31T12:44:00;51.25;;;22.58;;
31537;SDS011;18147;51.952;6.146;2022-10-31T12:46:44;45.45;;;21.38;;
31537;SDS011;18147;51.952;6.146;2022-10-31T12:49:30;51.25;;;21.98;;
31537;SDS011;18147;51.952;6.146;2022-10-31T12:54:55;51.22;;;21.48;;
31537;SDS011;18147;51.952;6.146;2022-10-31T13:00:07;44.90;;;19.90;;
31537;SDS011;18147;51.952;6.146;2022-10-31T13:02:57;44.95;;;19.67;;
31537;SDS011;18147;51.952;6.146;2022-10-31T13:05:31;42.15;;;18.33;;
31537;SDS011;18147;51.952;6.146;2022-10-31T13:10:43;45.45;;;21.08;;
31537;SDS011;18147;51.952;6.146;2022-10-31T13:13:17;44.47;;;17.73;;
31537;SDS011;18147;51.952;6.146;2022-10-31T13:15:54;45.80;;;20.77;;
31537;SDS011;18147;51.952;6.146;2022-10-31T13:18:30;48.05;;;19.60;;
31537;SDS011;18147;51.952;6.146;2022-10-31T13:21:02;46.65;;;19.60;;
31537;SDS011;18147;51.952;6.146;2022-10-31T13:23:33;43.58;;;20.85;;
31537;SDS011;18147;51.952;6.146;2022-10-31T13:26:03;44.13;;;21.02;;
31537;SDS011;18147;51.952;6.146;2022-10-31T13:28:36;51.97;;;20.23;;
31537;SDS011;18147;51.952;6.146;2022-10-31T13:31:04;45.72;;;20.02;;
31537;SDS011;18147;51.952;6.146;2022-10-31T13:33:31;47.28;;;20.67;;
31537;SDS011;18147;51.952;6.146;2022-10-31T13:41:47;48.97;;;20.83;;
31537;SDS011;18147;51.952;6.146;2022-10-31T13:44:19;43.58;;;19.20;;
31537;SDS011;18147;51.952;6.146;2022-10-31T13:46:51;48.83;;;19.75;;
31537;SDS011;18147;51.952;6.146;2022-10-31T13:49:39;47.03;;;20.75;;
31537;SDS011;18147;51.952;6.146;2022-10-31T13:54:36;47.37;;;20.17;;
31537;SDS011;18147;51.952;6.146;2022-10-31T13:57:07;48.88;;;20.65;;
31537;SDS011;18147;51.952;6.146;2022-10-31T13:59:50;48.38;;;19.50;;
31537;SDS011;18147;51.952;6.146;2022-10-31T14:02:21;51.17;;;21.05;;
31537;SDS011;18147;51.952;6.146;2022-10-31T14:04:52;53.05;;;20.20;;
31537;SDS011;18147;51.952;6.146;2022-10-31T14:07:21;38.78;;;18.25;;
31537;SDS011;18147;51.952;6.146;2022-10-31T14:12:24;46.15;;;20.13;;
31537;SDS011;18147;51.952;6.146;2022-10-31T14:14:55;52.40;;;20.27;;
31537;SDS011;18147;51.952;6.146;2022-10-31T14:17:25;43.78;;;18.83;;
31537;SDS011;18147;51.952;6.146;2022-10-31T14:20:40;38.53;;;16.58;;
31537;SDS011;18147;51.952;6.146;2022-10-31T14:25:36;50.85;;;20.13;;
31537;SDS011;18147;51.952;6.146;2022-10-31T14:28:03;47.20;;;22.63;;
31537;SDS011;18147;51.952;6.146;2022-10-31T14:30:50;47.15;;;19.65;;
31537;SDS011;18147;51.952;6.146;2022-10-31T14:33:21;40.65;;;16.30;;
31537;SDS011;18147;51.952;6.146;2022-10-31T14:38:26;41.10;;;20.05;;
31537;SDS011;18147;51.952;6.146;2022-10-31T14:43:47;41.07;;;19.70;;
31537;SDS011;18147;51.952;6.146;2022-10-31T14:46:18;42.10;;;17.05;;
31537;SDS011;18147;51.952;6.146;2022-10-31T14:49:12;42.35;;;21.10;;
31537;SDS011;18147;51.952;6.146;2022-10-31T14:51:59;48.03;;;19.43;;
31537;SDS011;18147;51.952;6.146;2022-10-31T14:54:33;48.40;;;19.80;;
31537;SDS011;18147;51.952;6.146;2022-10-31T14:57:05;44.65;;;19.88;;
31537;SDS011;18147;51.952;6.146;2022-10-31T14:59:38;50.22;;;21.65;;
31537;SDS011;18147;51.952;6.146;2022-10-31T15:02:14;55.97;;;21.87;;
31537;SDS011;18147;51.952;6.146;2022-10-31T15:04:48;52.78;;;23.48;;
31537;SDS011;18147;51.952;6.146;2022-10-31T15:09:54;51.72;;;22.00;;
31537;SDS011;18147;51.952;6.146;2022-10-31T15:12:28;45.47;;;20.08;;
31537;SDS011;18147;51.952;6.146;2022-10-31T15:17:51;45.67;;;21.25;;
31537;SDS011;18147;51.952;6.146;2022-10-31T15:20:24;50.67;;;21.25;;
31537;SDS011;18147;51.952;6.146;2022-10-31T15:22:51;54.67;;;23.23;;
31537;SDS011;18147;51.952;6.146;2022-10-31T15:25:19;61.13;;;24.05;;
31537;SDS011;18147;51.952;6.146;2022-10-31T15:27:50;51.80;;;22.83;;
31537;SDS011;18147;51.952;6.146;2022-10-31T15:30:20;58.45;;;23.05;;
31537;SDS011;18147;51.952;6.146;2022-10-31T15:32:46;59.03;;;22.33;;
31537;SDS011;18147;51.952;6.146;2022-10-31T15:35:19;52.28;;;20.75;;
31537;SDS011;18147;51.952;6.146;2022-10-31T15:37:51;64.93;;;23.65;;
31537;SDS011;18147;51.952;6.146;2022-10-31T15:40:18;52.97;;;23.15;;
31537;SDS011;18147;51.952;6.146;2022-10-31T15:42:48;58.47;;;21.70;;
31537;SDS011;18147;51.952;6.146;2022-10-31T15:45:26;53.80;;;22.58;;
31537;SDS011;18147;51.952;6.146;2022-10-31T15:47:57;49.72;;;21.88;;
31537;SDS011;18147;51.952;6.146;2022-10-31T15:50:32;44.55;;;21.83;;
31537;SDS011;18147;51.952;6.146;2022-10-31T15:53:03;46.72;;;21.08;;
31537;SDS011;18147;51.952;6.146;2022-10-31T15:55:31;50.67;;;20.50;;
31537;SDS011;18147;51.952;6.146;2022-10-31T15:58:02;51.45;;;20.55;;
31537;SDS011;18147;51.952;6.146;2022-10-31T16:00:35;53.35;;;21.55;;
31537;SDS011;18147;51.952;6.146;2022-10-31T16:05:39;49.95;;;23.17;;
31537;SDS011;18147;51.952;6.146;2022-10-31T16:08:22;53.13;;;23.83;;
31537;SDS011;18147;51.952;6.146;2022-10-31T16:11:16;55.03;;;23.48;;
31537;SDS011;18147;51.952;6.146;2022-10-31T16:16:22;56.15;;;23.63;;
31537;SDS011;18147;51.952;6.146;2022-10-31T16:18:49;48.03;;;21.17;;
31537;SDS011;18147;51.952;6.146;2022-10-31T16:21:15;50.25;;;22.38;;
31537;SDS011;18147;51.952;6.146;2022-10-31T16:24:02;52.65;;;23.30;;
31537;SDS011;18147;51.952;6.146;2022-10-31T16:26:36;52.83;;;24.42;;
31537;SDS011;18147;51.952;6.146;2022-10-31T16:29:02;52.22;;;21.30;;
31537;SDS011;18147;51.952;6.146;2022-10-31T16:31:28;52.28;;;23.50;;
31537;SDS011;18147;51.952;6.146;2022-10-31T16:34:14;58.08;;;21.55;;
31537;SDS011;18147;51.952;6.146;2022-10-31T16:36:42;57.20;;;23.13;;
31537;SDS011;18147;51.952;6.146;2022-10-31T16:39:08;53.42;;;23.75;;
31537;SDS011;18147;51.952;6.146;2022-10-31T16:41:35;57.83;;;25.17;;
31537;SDS011;18147;51.952;6.146;2022-10-31T16:44:13;58.15;;;23.10;;
31537;SDS011;18147;51.952;6.146;2022-10-31T16:49:40;59.97;;;23.85;;
31537;SDS011;18147;51.952;6.146;2022-10-31T16:52:07;56.65;;;23.38;;
31537;SDS011;18147;51.952;6.146;2022-10-31T16:54:32;58.83;;;23.35;;
31537;SDS011;18147;51.952;6.146;2022-10-31T16:56:58;66.72;;;24.45;;
31537;SDS011;18147;51.952;6.146;2022-10-31T16:59:25;50.90;;;23.15;;
31537;SDS011;18147;51.952;6.146;2022-10-31T17:01:51;56.33;;;21.52;;
31537;SDS011;18147;51.952;6.146;2022-10-31T17:04:18;58.95;;;24.02;;
31537;SDS011;18147;51.952;6.146;2022-10-31T17:06:44;71.03;;;25.83;;
31537;SDS011;18147;51.952;6.146;2022-10-31T17:09:10;57.20;;;23.17;;